• Join FlightAware (Why Join?)
  • Login
  • US Flag 
Gobble Gobble! 
02:04PM EST


 

Airport Tracker/Info


-or-


 

Live Flight TrackerFlight Track Log ✈ TAM3766 ✈ 23-May-2012 ✈ SBGL / GIG - SBEG / MAO

Flight Track Log - Related Links

Times and Time Zones

All times are in EDT time to prevent confusion due to time zone crossing. See the TAM3766 flight status page for this flight to view local times or setup timezone preferences in your user account.

Time Position Orientation Groundspeed Altitude Reporting Facility
EDT Latitude Longitude Course Direction KTS MPH feet Rate Location/Type
11:47AM -21.2725 -44.7167 319° Northwest  Level Estimated
11:48AM -21.1892 -44.7953 319° Northwest  Level Estimated
11:49AM -21.1059 -44.8738 319° Northwest  Level Estimated
11:50AM -21.0226 -44.9522 319° Northwest  Level Estimated
11:51AM -20.9392 -45.0306 319° Northwest  Level Estimated
11:52AM -20.8558 -45.1088 319° Northwest  Level Estimated
11:53AM -20.7723 -45.1870 319° Northwest  Level Estimated
11:54AM -20.6889 -45.2650 319° Northwest  Level Estimated
11:55AM -20.6053 -45.3430 319° Northwest  Level Estimated
11:56AM -20.5218 -45.4209 319° Northwest  Level Estimated
11:57AM -20.4382 -45.4987 319° Northwest  Level Estimated
11:58AM -20.3546 -45.5764 319° Northwest  Level Estimated
11:59AM -20.2709 -45.6540 319° Northwest  Level Estimated
12:00PM -20.1872 -45.7316 319° Northwest  Level Estimated
12:01PM -20.1035 -45.8091 319° Northwest  Level Estimated
12:02PM -20.0197 -45.8865 319° Northwest  Level Estimated
12:03PM -19.9359 -45.9638 319° Northwest  Level Estimated
12:04PM -19.8521 -46.0410 319° Northwest  Level Estimated
12:05PM -19.7682 -46.1181 319° Northwest  Level Estimated
12:06PM -19.6844 -46.1952 319° Northwest  Level Estimated
12:07PM -19.6004 -46.2722 319° Northwest  Level Estimated
12:08PM -19.5165 -46.3491 319° Northwest  Level Estimated
12:09PM -19.4325 -46.4259 319° Northwest  Level Estimated
12:10PM -19.3485 -46.5026 319° Northwest  Level Estimated
12:11PM -19.2644 -46.5793 319° Northwest  Level Estimated
12:12PM -19.1803 -46.6559 319° Northwest  Level Estimated
12:13PM -19.0962 -46.7324 319° Northwest  Level Estimated
12:14PM -19.0121 -46.8088 319° Northwest  Level Estimated
12:15PM -18.9279 -46.8852 319° Northwest  Level Estimated
12:16PM -18.8437 -46.9614 319° Northwest  Level Estimated
12:17PM -18.7594 -47.0376 319° Northwest  Level Estimated
12:18PM -18.6752 -47.1138 319° Northwest  Level Estimated
12:19PM -18.5909 -47.1898 319° Northwest  Level Estimated
12:20PM -18.5065 -47.2658 320° Northwest  Level Estimated
12:21PM -18.4222 -47.3417 320° Northwest  Level Estimated
12:22PM -18.3378 -47.4175 320° Northwest  Level Estimated
12:23PM -18.2533 -47.4933 320° Northwest  Level Estimated
12:24PM -18.1689 -47.5689 320° Northwest  Level Estimated
12:25PM -18.0844 -47.6445 320° Northwest  Level Estimated
12:26PM -17.9999 -47.7201 320° Northwest  Level Estimated
12:27PM -17.9154 -47.7955 320° Northwest  Level Estimated
12:28PM -17.8308 -47.8709 320° Northwest  Level Estimated
12:29PM -17.7462 -47.9462 320° Northwest  Level Estimated
12:30PM -17.6616 -48.0214 320° Northwest  Level Estimated
12:31PM -17.5769 -48.0966 320° Northwest  Level Estimated
12:32PM -17.4922 -48.1717 320° Northwest  Level Estimated
12:33PM -17.4075 -48.2467 320° Northwest  Level Estimated
12:34PM -17.3228 -48.3217 320° Northwest  Level Estimated
12:35PM -17.2380 -48.3966 320° Northwest  Level Estimated
12:36PM -17.1532 -48.4714 320° Northwest  Level Estimated
12:37PM -17.0684 -48.5462 320° Northwest  Level Estimated
12:38PM -16.9835 -48.6208 320° Northwest  Level Estimated
12:39PM -16.8986 -48.6955 320° Northwest  Level Estimated
12:40PM -16.8137 -48.7700 320° Northwest  Level Estimated
12:41PM -16.7288 -48.8445 320° Northwest  Level Estimated
12:42PM -16.6438 -48.9189 320° Northwest  Level Estimated
12:43PM -16.5588 -48.9933 320° Northwest  Level Estimated
12:44PM -16.4738 -49.0676 320° Northwest  Level Estimated
12:45PM -16.3888 -49.1418 320° Northwest  Level Estimated
12:46PM -16.3037 -49.2159 320° Northwest  Level Estimated
12:47PM -16.2186 -49.2900 320° Northwest  Level Estimated
12:48PM -16.1335 -49.3641 320° Northwest  Level Estimated
12:49PM -16.0484 -49.4380 320° Northwest  Level Estimated
12:50PM -15.9632 -49.5119 320° Northwest  Level Estimated
12:51PM -15.8780 -49.5858 320° Northwest  Level Estimated
12:52PM -15.7928 -49.6595 320° Northwest  Level Estimated
12:53PM -15.7076 -49.7332 320° Northwest  Level Estimated
12:54PM -15.6223 -49.8069 320° Northwest  Level Estimated
12:55PM -15.5370 -49.8805 320° Northwest  Level Estimated
12:56PM -15.4517 -49.9540 320° Northwest  Level Estimated
12:57PM -15.3663 -50.0275 320° Northwest  Level Estimated
12:58PM -15.2810 -50.1009 320° Northwest  Level Estimated
12:59PM -15.1956 -50.1743 320° Northwest  Level Estimated
01:00PM -15.1102 -50.2475 320° Northwest  Level Estimated
01:01PM -15.0247 -50.3208 320° Northwest  Level Estimated
01:02PM -14.9393 -50.3939 320° Northwest  Level Estimated
01:03PM -14.8538 -50.4670 320° Northwest  Level Estimated
01:04PM -14.7683 -50.5401 320° Northwest  Level Estimated
01:05PM -14.6827 -50.6131 320° Northwest  Level Estimated
01:06PM -14.5972 -50.6861 320° Northwest  Level Estimated
01:07PM -14.5116 -50.7589 321° Northwest  Level Estimated
01:08PM -14.4260 -50.8318 321° Northwest  Level Estimated
01:09PM -14.3404 -50.9045 321° Northwest  Level Estimated
01:10PM -14.2548 -50.9773 321° Northwest  Level Estimated
01:11PM -14.1691 -51.0499 321° Northwest  Level Estimated
01:12PM -14.0834 -51.1225 321° Northwest  Level Estimated
01:13PM -13.9977 -51.1951 321° Northwest  Level Estimated
01:14PM -13.9120 -51.2676 321° Northwest  Level Estimated
01:15PM -13.8262 -51.3400 321° Northwest  Level Estimated
01:16PM -13.7404 -51.4124 321° Northwest  Level Estimated
01:17PM -13.6547 -51.4848 321° Northwest  Level Estimated
01:18PM -13.5688 -51.5571 321° Northwest  Level Estimated
01:19PM -13.4830 -51.6293 321° Northwest  Level Estimated
01:20PM -13.3972 -51.7015 321° Northwest  Level Estimated
01:21PM -13.3113 -51.7736 321° Northwest  Level Estimated
01:22PM -13.2254 -51.8457 321° Northwest  Level Estimated
01:23PM -13.1395 -51.9177 321° Northwest  Level Estimated
01:24PM -13.0535 -51.9897 321° Northwest  Level Estimated
01:25PM -12.9676 -52.0616 321° Northwest  Level Estimated
01:26PM -12.8816 -52.1335 321° Northwest  Level Estimated
01:27PM -12.7956 -52.2053 321° Northwest  Level Estimated
01:28PM -12.7096 -52.2771 321° Northwest  Level Estimated
01:29PM -12.6236 -52.3488 321° Northwest  Level Estimated
01:30PM -12.5375 -52.4205 321° Northwest  Level Estimated
01:31PM -12.4514 -52.4922 321° Northwest  Level Estimated
01:32PM -12.3653 -52.5638 321° Northwest  Level Estimated
01:33PM -12.2792 -52.6353 321° Northwest  Level Estimated
01:34PM -12.1931 -52.7068 321° Northwest  Level Estimated
01:35PM -12.1069 -52.7782 321° Northwest  Level Estimated
01:36PM -12.0208 -52.8496 321° Northwest  Level Estimated
01:37PM -11.9346 -52.9210 321° Northwest  Level Estimated
01:38PM -11.8484 -52.9923 321° Northwest  Level Estimated
01:39PM -11.7622 -53.0636 321° Northwest  Level Estimated
01:40PM -11.6760 -53.1348 321° Northwest  Level Estimated
01:41PM -11.5897 -53.2060 321° Northwest  Level Estimated
01:42PM -11.5034 -53.2771 321° Northwest  Level Estimated
01:43PM -11.4171 -53.3482 321° Northwest  Level Estimated
01:44PM -11.3308 -53.4192 321° Northwest  Level Estimated
01:45PM -11.2445 -53.4902 321° Northwest  Level Estimated
01:46PM -11.1582 -53.5612 321° Northwest  Level Estimated
01:47PM -11.0718 -53.6321 321° Northwest  Level Estimated
01:48PM -10.9854 -53.7030 321° Northwest  Level Estimated
01:49PM -10.8990 -53.7738 321° Northwest  Level Estimated
01:50PM -10.8126 -53.8446 321° Northwest  Level Estimated
01:51PM -10.7262 -53.9154 321° Northwest  Level Estimated
01:52PM -10.6398 -53.9861 321° Northwest  Level Estimated
01:53PM -10.5533 -54.0568 321° Northwest  Level Estimated
01:54PM -10.4669 -54.1274 321° Northwest  Level Estimated
01:55PM -10.3804 -54.1980 321° Northwest  Level Estimated
01:56PM -10.2939 -54.2685 321° Northwest  Level Estimated
01:57PM -10.2074 -54.3391 321° Northwest  Level Estimated
01:58PM -10.1208 -54.4095 321° Northwest  Level Estimated
01:59PM -10.0343 -54.4800 321° Northwest  Level Estimated
02:00PM -9.9477 -54.5504 321° Northwest  Level Estimated
02:01PM -9.8612 -54.6207 321° Northwest  Level Estimated
02:02PM -9.7746 -54.6911 321° Northwest  Level Estimated
02:03PM -9.6880 -54.7613 321° Northwest  Level Estimated
02:04PM -9.6014 -54.8316 321° Northwest  Level Estimated
02:05PM -9.5147 -54.9018 321° Northwest  Level Estimated
02:06PM -9.4281 -54.9720 321° Northwest  Level Estimated
02:07PM -9.3414 -55.0421 321° Northwest  Level Estimated
02:08PM -9.2548 -55.1123 321° Northwest  Level Estimated
02:09PM -9.1681 -55.1823 321° Northwest  Level Estimated
02:10PM -9.0814 -55.2524 321° Northwest  Level Estimated
02:11PM -8.9946 -55.3224 321° Northwest  Level Estimated
02:12PM -8.9079 -55.3924 321° Northwest  Level Estimated
02:13PM -8.8212 -55.4623 321° Northwest  Level Estimated
02:14PM -8.7344 -55.5322 321° Northwest  Level Estimated
02:15PM -8.6477 -55.6021 321° Northwest  Level Estimated
02:16PM -8.5609 -55.6720 321° Northwest  Level Estimated
02:17PM -8.4741 -55.7418 322° Northwest  Level Estimated
02:18PM -8.3873 -55.8116 322° Northwest  Level Estimated
02:19PM -8.3005 -55.8813 322° Northwest  Level Estimated
02:20PM -8.2136 -55.9510 322° Northwest  Level Estimated
02:21PM -8.1268 -56.0207 322° Northwest  Level Estimated
02:22PM -8.0400 -56.0904 322° Northwest  Level Estimated
02:23PM -7.9531 -56.1600 322° Northwest  Level Estimated
02:24PM -7.8662 -56.2296 322° Northwest  Level Estimated
02:25PM -7.7793 -56.2992 322° Northwest  Level Estimated
02:26PM -7.6924 -56.3687 322° Northwest  Level Estimated
02:27PM -7.6055 -56.4382 322° Northwest  Level Estimated
02:28PM -7.5186 -56.5077 322° Northwest  Level Estimated
02:29PM -7.4317 -56.5772 322° Northwest  Level Estimated
02:30PM -7.3447 -56.6466 322° Northwest  Level Estimated
02:31PM -7.2578 -56.7160 322° Northwest  Level Estimated
02:32PM -7.1708 -56.7854 322° Northwest  Level Estimated
02:33PM -7.0838 -56.8547 322° Northwest  Level Estimated
02:34PM -6.9969 -56.9240 322° Northwest  Level Estimated
02:35PM -6.9099 -56.9934 322° Northwest  Level Estimated
02:36PM -6.8229 -57.0626 322° Northwest  Level Estimated
02:37PM -6.7359 -57.1319 322° Northwest  Level Estimated
02:38PM -6.6488 -57.2011 322° Northwest  Level Estimated
02:39PM -6.5618 -57.2703 322° Northwest  Level Estimated
02:40PM -6.4748 -57.3395 322° Northwest  Level Estimated
02:41PM -6.3877 -57.4086 322° Northwest  Level Estimated
02:42PM -6.3007 -57.4777 322° Northwest  Level Estimated
02:43PM -6.2136 -57.5468 322° Northwest  Level Estimated
02:44PM -6.1265 -57.6159 322° Northwest  Level Estimated
02:45PM -6.0394 -57.6850 322° Northwest  Level Estimated
02:46PM -5.9523 -57.7540 322° Northwest  Level Estimated
02:47PM -5.8652 -57.8230 322° Northwest  Level Estimated
02:48PM -5.7781 -57.8920 322° Northwest  Level Estimated
02:49PM -5.6910 -57.9610 322° Northwest  Level Estimated
02:50PM -5.6039 -58.0299 322° Northwest  Level Estimated
02:51PM -5.5167 -58.0989 322° Northwest  Level Estimated
02:52PM -5.4296 -58.1678 322° Northwest  Level Estimated
02:53PM -5.3424 -58.2367 322° Northwest  Level Estimated
02:54PM -5.2553 -58.3055 322° Northwest  Level Estimated
02:55PM -5.1681 -58.3744 322° Northwest  Level Estimated
02:56PM -5.0809 -58.4432 322° Northwest  Level Estimated
02:57PM -4.9937 -58.5120 322° Northwest  Level Estimated
02:58PM -4.9065 -58.5808 322° Northwest  Level Estimated
02:59PM -4.8193 -58.6496 322° Northwest  Level Estimated
03:00PM -4.7321 -58.7184 322° Northwest  Level Estimated
03:01PM -4.6449 -58.7871 322° Northwest  Level Estimated
03:02PM -4.5577 -58.8558 322° Northwest  Level Estimated
03:03PM -4.4705 -58.9245 322° Northwest  Level Estimated
03:04PM -4.3833 -58.9932 322° Northwest  Level Estimated
03:05PM -4.2960 -59.0619 322° Northwest  Level Estimated
03:06PM -4.2088 -59.1306 322° Northwest  Level Estimated
03:07PM -4.1215 -59.1992 322° Northwest  Level Estimated
03:08PM -4.0343 -59.2679 322° Northwest  Level Estimated
03:09PM -3.9470 -59.3365 322° Northwest  Level Estimated
03:10PM -3.8597 -59.4051 322° Northwest  Level Estimated
03:11PM -3.7725 -59.4737 322° Northwest  Level Estimated
03:12PM -3.6852 -59.5422 322° Northwest  Level Estimated
03:13PM -3.5979 -59.6108 322° Northwest  Level Estimated
03:14PM -3.5106 -59.6794 322° Northwest  Level Estimated
03:15PM -3.4233 -59.7479 322° Northwest  Level Estimated
03:16PM -3.3360 -59.8164 322° Northwest  Level Estimated
03:17PM -3.2487 -59.8849 322° Northwest  Level Estimated
03:18PM -3.1614 -59.9534 322° Northwest  Level Estimated
03:19PM -3.0741 -60.0219 322° Northwest  Level Estimated
03:20PM -2.9868 -60.0904 142° Southeast  Level Estimated
03:21PM -3.0741 -60.0219 322° Northwest  Level Estimated
03:22PM -2.9868 -60.0904 142° Southeast  Level Estimated
03:23PM -3.0741 -60.0219 322° Northwest  Level Estimated
03:24PM -2.9868 -60.0904 322° Northwest  Level Estimated